Аэропорт: Ульяновск-Восточный. Ульяновск

ICAO: UWLW

METAR:
2019-07-23 18:00:00
UWLW 231800Z 04003MPS 8000 NSC 18/13 Q1015 R02/CLRD60 NOSIG RMK QFE754
METAR:
2019-07-23 16:45:00
TAF UWLW 231645Z 2318/2418 01003MPS 8000 SCT030 TEMPO 2400/2406 08003MPS TEMPO 2406/2416 35005G12MPS SCT020CB